sensor_id;sensor_type;location;lat;lon;timestamp;P1;durP1;ratioP1;P2;durP2;ratioP2
45684;SDS011;46836;48.388;16.210;2024-03-23T00:53:51;14.05;;;12.18;;
45684;SDS011;46836;48.388;16.210;2024-03-23T00:56:18;12.40;;;11.20;;
45684;SDS011;46836;48.388;16.210;2024-03-23T00:58:44;14.93;;;11.73;;
45684;SDS011;46836;48.388;16.210;2024-03-23T01:01:10;13.33;;;11.90;;
45684;SDS011;46836;48.388;16.210;2024-03-23T01:03:36;14.47;;;11.40;;
45684;SDS011;46836;48.388;16.210;2024-03-23T01:06:02;15.70;;;12.70;;
45684;SDS011;46836;48.388;16.210;2024-03-23T01:08:29;17.48;;;12.45;;
45684;SDS011;46836;48.388;16.210;2024-03-23T01:10:59;14.20;;;12.23;;
45684;SDS011;46836;48.388;16.210;2024-03-23T01:13:26;14.68;;;12.70;;
45684;SDS011;46836;48.388;16.210;2024-03-23T01:15:53;17.15;;;13.00;;
45684;SDS011;46836;48.388;16.210;2024-03-23T01:18:21;17.13;;;12.68;;
45684;SDS011;46836;48.388;16.210;2024-03-23T01:20:48;12.90;;;11.60;;
45684;SDS011;46836;48.388;16.210;2024-03-23T01:23:14;15.07;;;12.95;;
45684;SDS011;46836;48.388;16.210;2024-03-23T01:25:41;14.20;;;12.70;;
45684;SDS011;46836;48.388;16.210;2024-03-23T01:28:07;16.70;;;12.95;;
45684;SDS011;46836;48.388;16.210;2024-03-23T01:30:33;15.55;;;12.45;;
45684;SDS011;46836;48.388;16.210;2024-03-23T01:33:01;13.80;;;12.32;;
45684;SDS011;46836;48.388;16.210;2024-03-23T01:35:28;14.07;;;12.65;;
45684;SDS011;46836;48.388;16.210;2024-03-23T01:37:54;16.80;;;13.50;;
45684;SDS011;46836;48.388;16.210;2024-03-23T01:40:20;14.70;;;12.68;;
45684;SDS011;46836;48.388;16.210;2024-03-23T01:42:56;16.85;;;12.55;;
45684;SDS011;46836;48.388;16.210;2024-03-23T01:45:22;16.63;;;13.02;;
45684;SDS011;46836;48.388;16.210;2024-03-23T01:47:49;14.07;;;11.88;;
45684;SDS011;46836;48.388;16.210;2024-03-23T01:50:16;13.52;;;12.23;;
45684;SDS011;46836;48.388;16.210;2024-03-23T01:52:42;14.00;;;12.20;;
45684;SDS011;46836;48.388;16.210;2024-03-23T01:55:09;20.80;;;12.23;;
45684;SDS011;46836;48.388;16.210;2024-03-23T01:57:35;14.82;;;12.15;;
45684;SDS011;46836;48.388;16.210;2024-03-23T02:00:02;18.08;;;12.82;;
45684;SDS011;46836;48.388;16.210;2024-03-23T02:02:28;16.67;;;11.95;;
45684;SDS011;46836;48.388;16.210;2024-03-23T02:04:54;15.40;;;12.00;;
45684;SDS011;46836;48.388;16.210;2024-03-23T02:07:20;14.23;;;12.80;;
45684;SDS011;46836;48.388;16.210;2024-03-23T02:09:46;18.57;;;12.57;;
45684;SDS011;46836;48.388;16.210;2024-03-23T02:12:12;13.82;;;11.35;;
45684;SDS011;46836;48.388;16.210;2024-03-23T02:14:38;15.63;;;11.93;;
45684;SDS011;46836;48.388;16.210;2024-03-23T02:17:04;12.33;;;11.10;;
45684;SDS011;46836;48.388;16.210;2024-03-23T02:19:30;13.37;;;11.97;;
45684;SDS011;46836;48.388;16.210;2024-03-23T02:21:56;14.20;;;11.87;;
45684;SDS011;46836;48.388;16.210;2024-03-23T02:24:22;13.40;;;12.00;;
45684;SDS011;46836;48.388;16.210;2024-03-23T02:26:48;13.30;;;11.60;;
45684;SDS011;46836;48.388;16.210;2024-03-23T02:29:14;15.93;;;13.23;;
45684;SDS011;46836;48.388;16.210;2024-03-23T02:31:40;15.20;;;13.60;;
45684;SDS011;46836;48.388;16.210;2024-03-23T02:34:06;14.68;;;12.55;;
45684;SDS011;46836;48.388;16.210;2024-03-23T02:36:32;15.83;;;14.07;;
45684;SDS011;46836;48.388;16.210;2024-03-23T02:38:58;16.00;;;13.37;;
45684;SDS011;46836;48.388;16.210;2024-03-23T02:41:24;15.82;;;14.15;;
45684;SDS011;46836;48.388;16.210;2024-03-23T02:43:50;18.50;;;12.83;;
45684;SDS011;46836;48.388;16.210;2024-03-23T02:46:16;19.73;;;14.73;;
45684;SDS011;46836;48.388;16.210;2024-03-23T02:48:42;13.80;;;11.77;;
45684;SDS011;46836;48.388;16.210;2024-03-23T02:51:08;18.15;;;13.63;;
45684;SDS011;46836;48.388;16.210;2024-03-23T02:53:35;17.33;;;13.70;;
45684;SDS011;46836;48.388;16.210;2024-03-23T02:56:02;15.85;;;13.00;;
45684;SDS011;46836;48.388;16.210;2024-03-23T02:58:28;15.63;;;14.00;;
45684;SDS011;46836;48.388;16.210;2024-03-23T03:00:55;14.70;;;13.20;;
45684;SDS011;46836;48.388;16.210;2024-03-23T03:03:21;12.73;;;11.43;;
45684;SDS011;46836;48.388;16.210;2024-03-23T03:05:47;16.53;;;13.10;;
45684;SDS011;46836;48.388;16.210;2024-03-23T03:08:13;21.40;;;14.13;;
45684;SDS011;46836;48.388;16.210;2024-03-23T03:10:39;15.63;;;13.35;;
45684;SDS011;46836;48.388;16.210;2024-03-23T03:13:05;17.85;;;14.15;;
45684;SDS011;46836;48.388;16.210;2024-03-23T03:15:30;15.38;;;12.93;;
45684;SDS011;46836;48.388;16.210;2024-03-23T03:17:56;18.40;;;12.37;;
45684;SDS011;46836;48.388;16.210;2024-03-23T03:20:22;16.40;;;13.57;;
45684;SDS011;46836;48.388;16.210;2024-03-23T03:22:49;15.38;;;12.20;;
45684;SDS011;46836;48.388;16.210;2024-03-23T03:25:15;21.93;;;14.27;;
45684;SDS011;46836;48.388;16.210;2024-03-23T03:27:41;16.75;;;11.82;;
45684;SDS011;46836;48.388;16.210;2024-03-23T03:30:07;13.30;;;11.80;;
45684;SDS011;46836;48.388;16.210;2024-03-23T03:35:27;13.23;;;11.80;;
45684;SDS011;46836;48.388;16.210;2024-03-23T03:37:55;14.85;;;11.23;;
45684;SDS011;46836;48.388;16.210;2024-03-23T03:40:21;15.88;;;12.60;;
45684;SDS011;46836;48.388;16.210;2024-03-23T03:42:47;12.20;;;10.80;;
45684;SDS011;46836;48.388;16.210;2024-03-23T03:45:14;17.65;;;11.68;;
45684;SDS011;46836;48.388;16.210;2024-03-23T03:47:40;15.88;;;11.85;;
45684;SDS011;46836;48.388;16.210;2024-03-23T03:50:06;13.50;;;11.65;;
45684;SDS011;46836;48.388;16.210;2024-03-23T03:52:32;15.50;;;12.48;;
45684;SDS011;46836;48.388;16.210;2024-03-23T03:55:01;12.95;;;11.32;;
45684;SDS011;46836;48.388;16.210;2024-03-23T03:57:28;17.98;;;11.88;;
45684;SDS011;46836;48.388;16.210;2024-03-23T03:59:54;14.73;;;12.25;;
45684;SDS011;46836;48.388;16.210;2024-03-23T04:02:20;14.70;;;13.23;;
45684;SDS011;46836;48.388;16.210;2024-03-23T04:04:46;16.65;;;13.57;;
45684;SDS011;46836;48.388;16.210;2024-03-23T04:07:13;16.90;;;12.45;;
45684;SDS011;46836;48.388;16.210;2024-03-23T04:09:39;16.33;;;13.15;;
45684;SDS011;46836;48.388;16.210;2024-03-23T04:12:05;18.15;;;12.98;;
45684;SDS011;46836;48.388;16.210;2024-03-23T04:14:31;18.42;;;12.70;;
45684;SDS011;46836;48.388;16.210;2024-03-23T04:16:57;13.80;;;11.93;;
45684;SDS011;46836;48.388;16.210;2024-03-23T04:19:23;16.50;;;13.43;;
45684;SDS011;46836;48.388;16.210;2024-03-23T04:21:49;16.73;;;12.60;;
45684;SDS011;46836;48.388;16.210;2024-03-23T04:24:15;14.57;;;12.50;;
45684;SDS011;46836;48.388;16.210;2024-03-23T04:26:42;15.38;;;12.00;;
45684;SDS011;46836;48.388;16.210;2024-03-23T04:29:08;13.40;;;11.68;;
45684;SDS011;46836;48.388;16.210;2024-03-23T04:31:34;14.30;;;12.80;;
45684;SDS011;46836;48.388;16.210;2024-03-23T04:34:01;14.25;;;12.85;;
45684;SDS011;46836;48.388;16.210;2024-03-23T04:36:27;16.08;;;12.82;;
45684;SDS011;46836;48.388;16.210;2024-03-23T04:38:53;14.40;;;12.88;;
45684;SDS011;46836;48.388;16.210;2024-03-23T04:41:19;15.93;;;13.45;;
45684;SDS011;46836;48.388;16.210;2024-03-23T04:43:45;14.70;;;12.63;;
45684;SDS011;46836;48.388;16.210;2024-03-23T04:46:11;15.23;;;13.33;;
45684;SDS011;46836;48.388;16.210;2024-03-23T04:48:37;13.40;;;12.00;;
45684;SDS011;46836;48.388;16.210;2024-03-23T04:51:03;16.70;;;12.48;;
45684;SDS011;46836;48.388;16.210;2024-03-23T04:53:29;13.00;;;11.70;;
45684;SDS011;46836;48.388;16.210;2024-03-23T04:55:56;15.13;;;12.50;;
45684;SDS011;46836;48.388;16.210;2024-03-23T04:58:22;16.60;;;12.90;;
45684;SDS011;46836;48.388;16.210;2024-03-23T05:00:53;15.13;;;12.65;;
45684;SDS011;46836;48.388;16.210;2024-03-23T05:03:22;17.65;;;14.30;;
45684;SDS011;46836;48.388;16.210;2024-03-23T05:05:49;16.73;;;14.98;;
45684;SDS011;46836;48.388;16.210;2024-03-23T05:08:15;14.20;;;12.73;;
45684;SDS011;46836;48.388;16.210;2024-03-23T05:10:42;16.55;;;13.07;;
45684;SDS011;46836;48.388;16.210;2024-03-23T05:13:08;15.90;;;13.40;;
45684;SDS011;46836;48.388;16.210;2024-03-23T05:15:35;16.45;;;14.10;;
45684;SDS011;46836;48.388;16.210;2024-03-23T05:18:01;15.93;;;14.33;;
45684;SDS011;46836;48.388;16.210;2024-03-23T05:20:27;15.75;;;14.05;;
45684;SDS011;46836;48.388;16.210;2024-03-23T05:22:54;16.10;;;14.38;;
45684;SDS011;46836;48.388;16.210;2024-03-23T05:25:20;15.93;;;13.68;;
45684;SDS011;46836;48.388;16.210;2024-03-23T05:27:46;16.95;;;15.13;;
45684;SDS011;46836;48.388;16.210;2024-03-23T05:30:12;16.23;;;14.30;;
45684;SDS011;46836;48.388;16.210;2024-03-23T05:32:39;16.25;;;13.27;;
45684;SDS011;46836;48.388;16.210;2024-03-23T05:35:07;15.05;;;13.45;;
45684;SDS011;46836;48.388;16.210;2024-03-23T05:37:35;17.85;;;13.25;;
45684;SDS011;46836;48.388;16.210;2024-03-23T05:40:02;19.27;;;14.40;;
45684;SDS011;46836;48.388;16.210;2024-03-23T05:42:29;15.18;;;13.43;;
45684;SDS011;46836;48.388;16.210;2024-03-23T05:44:55;15.57;;;14.10;;
45684;SDS011;46836;48.388;16.210;2024-03-23T05:47:21;13.40;;;12.00;;
45684;SDS011;46836;48.388;16.210;2024-03-23T05:49:47;14.23;;;12.73;;
45684;SDS011;46836;48.388;16.210;2024-03-23T05:52:13;18.70;;;13.97;;
45684;SDS011;46836;48.388;16.210;2024-03-23T05:54:39;16.35;;;13.18;;
45684;SDS011;46836;48.388;16.210;2024-03-23T05:57:05;16.40;;;13.80;;
45684;SDS011;46836;48.388;16.210;2024-03-23T05:59:34;15.85;;;14.02;;
45684;SDS011;46836;48.388;16.210;2024-03-23T06:02:00;16.73;;;14.00;;
45684;SDS011;46836;48.388;16.210;2024-03-23T06:04:25;14.00;;;12.47;;
45684;SDS011;46836;48.388;16.210;2024-03-23T06:06:52;15.10;;;13.57;;
45684;SDS011;46836;48.388;16.210;2024-03-23T06:09:18;14.65;;;13.20;;
45684;SDS011;46836;48.388;16.210;2024-03-23T06:11:48;16.05;;;14.35;;
45684;SDS011;46836;48.388;16.210;2024-03-23T06:14:14;17.83;;;13.75;;
45684;SDS011;46836;48.388;16.210;2024-03-23T06:16:40;20.50;;;15.00;;
45684;SDS011;46836;48.388;16.210;2024-03-23T06:19:06;15.43;;;13.98;;
45684;SDS011;46836;48.388;16.210;2024-03-23T06:21:33;16.30;;;14.60;;
45684;SDS011;46836;48.388;16.210;2024-03-23T06:23:59;19.17;;;14.85;;
45684;SDS011;46836;48.388;16.210;2024-03-23T06:26:25;17.80;;;14.67;;
45684;SDS011;46836;48.388;16.210;2024-03-23T06:28:51;17.45;;;14.35;;
45684;SDS011;46836;48.388;16.210;2024-03-23T06:31:17;16.10;;;13.95;;
45684;SDS011;46836;48.388;16.210;2024-03-23T06:33:43;14.57;;;12.93;;
45684;SDS011;46836;48.388;16.210;2024-03-23T06:36:09;15.47;;;12.80;;
45684;SDS011;46836;48.388;16.210;2024-03-23T06:38:36;16.08;;;14.10;;
45684;SDS011;46836;48.388;16.210;2024-03-23T06:41:06;20.00;;;16.15;;
45684;SDS011;46836;48.388;16.210;2024-03-23T06:43:32;15.65;;;13.98;;
45684;SDS011;46836;48.388;16.210;2024-03-23T06:45:58;17.40;;;15.60;;
45684;SDS011;46836;48.388;16.210;2024-03-23T06:48:26;17.20;;;15.40;;
45684;SDS011;46836;48.388;16.210;2024-03-23T06:50:55;21.08;;;15.48;;
45684;SDS011;46836;48.388;16.210;2024-03-23T06:53:22;18.55;;;16.55;;
45684;SDS011;46836;48.388;16.210;2024-03-23T06:55:52;16.90;;;14.77;;
45684;SDS011;46836;48.388;16.210;2024-03-23T06:58:19;15.35;;;13.75;;
45684;SDS011;46836;48.388;16.210;2024-03-23T07:00:46;15.13;;;11.95;;
45684;SDS011;46836;48.388;16.210;2024-03-23T07:03:12;15.15;;;13.52;;
45684;SDS011;46836;48.388;16.210;2024-03-23T07:05:38;17.42;;;13.88;;
45684;SDS011;46836;48.388;16.210;2024-03-23T07:08:04;18.02;;;14.50;;
45684;SDS011;46836;48.388;16.210;2024-03-23T07:10:30;15.70;;;12.88;;
45684;SDS011;46836;48.388;16.210;2024-03-23T07:12:56;13.23;;;11.93;;
45684;SDS011;46836;48.388;16.210;2024-03-23T07:15:22;15.45;;;12.60;;
45684;SDS011;46836;48.388;16.210;2024-03-23T07:17:48;16.93;;;13.50;;
45684;SDS011;46836;48.388;16.210;2024-03-23T07:20:15;15.82;;;13.20;;
45684;SDS011;46836;48.388;16.210;2024-03-23T07:22:41;14.07;;;12.60;;
45684;SDS011;46836;48.388;16.210;2024-03-23T07:25:07;14.80;;;12.10;;
45684;SDS011;46836;48.388;16.210;2024-03-23T07:27:33;15.15;;;13.65;;
45684;SDS011;46836;48.388;16.210;2024-03-23T07:29:59;14.23;;;12.65;;
45684;SDS011;46836;48.388;16.210;2024-03-23T07:32:26;18.80;;;14.98;;
45684;SDS011;46836;48.388;16.210;2024-03-23T07:34:52;15.45;;;13.82;;
45684;SDS011;46836;48.388;16.210;2024-03-23T07:37:18;16.37;;;14.67;;
45684;SDS011;46836;48.388;16.210;2024-03-23T07:39:44;16.90;;;14.57;;
45684;SDS011;46836;48.388;16.210;2024-03-23T07:42:10;16.10;;;14.40;;
45684;SDS011;46836;48.388;16.210;2024-03-23T07:44:36;21.47;;;15.03;;
45684;SDS011;46836;48.388;16.210;2024-03-23T07:47:03;17.83;;;14.85;;
45684;SDS011;46836;48.388;16.210;2024-03-23T07:49:29;15.73;;;14.13;;
45684;SDS011;46836;48.388;16.210;2024-03-23T07:51:55;15.27;;;13.33;;
45684;SDS011;46836;48.388;16.210;2024-03-23T07:54:21;16.80;;;13.53;;
45684;SDS011;46836;48.388;16.210;2024-03-23T07:56:47;17.67;;;12.85;;
45684;SDS011;46836;48.388;16.210;2024-03-23T07:59:13;14.57;;;12.90;;
45684;SDS011;46836;48.388;16.210;2024-03-23T08:01:39;17.33;;;13.07;;
45684;SDS011;46836;48.388;16.210;2024-03-23T08:04:05;12.20;;;10.98;;
45684;SDS011;46836;48.388;16.210;2024-03-23T08:06:31;15.40;;;11.77;;
45684;SDS011;46836;48.388;16.210;2024-03-23T08:08:57;13.90;;;11.73;;
45684;SDS011;46836;48.388;16.210;2024-03-23T08:11:27;15.48;;;12.40;;
45684;SDS011;46836;48.388;16.210;2024-03-23T08:13:54;13.30;;;11.00;;
45684;SDS011;46836;48.388;16.210;2024-03-23T08:16:21;11.20;;;10.05;;
45684;SDS011;46836;48.388;16.210;2024-03-23T08:18:47;10.30;;;9.27;;
45684;SDS011;46836;48.388;16.210;2024-03-23T08:21:13;10.07;;;8.68;;
45684;SDS011;46836;48.388;16.210;2024-03-23T08:23:39;9.85;;;8.90;;
45684;SDS011;46836;48.388;16.210;2024-03-23T08:26:06;8.55;;;7.85;;
45684;SDS011;46836;48.388;16.210;2024-03-23T08:28:34;8.80;;;7.78;;
45684;SDS011;46836;48.388;16.210;2024-03-23T08:31:04;9.32;;;7.85;;
45684;SDS011;46836;48.388;16.210;2024-03-23T08:33:34;8.07;;;7.32;;
45684;SDS011;46836;48.388;16.210;2024-03-23T08:36:04;9.50;;;7.70;;
45684;SDS011;46836;48.388;16.210;2024-03-23T08:38:32;6.78;;;6.18;;
45684;SDS011;46836;48.388;16.210;2024-03-23T08:41:05;7.72;;;6.65;;
45684;SDS011;46836;48.388;16.210;2024-03-23T08:43:33;8.35;;;7.07;;
45684;SDS011;46836;48.388;16.210;2024-03-23T08:46:10;9.93;;;6.53;;
45684;SDS011;46836;48.388;16.210;2024-03-23T08:48:38;7.47;;;5.65;;
45684;SDS011;46836;48.388;16.210;2024-03-23T08:51:09;7.25;;;6.00;;
45684;SDS011;46836;48.388;16.210;2024-03-23T08:53:38;5.07;;;4.68;;
45684;SDS011;46836;48.388;16.210;2024-03-23T08:56:05;5.60;;;4.70;;
45684;SDS011;46836;48.388;16.210;2024-03-23T08:58:32;4.85;;;4.45;;
45684;SDS011;46836;48.388;16.210;2024-03-23T09:01:03;4.72;;;4.20;;
45684;SDS011;46836;48.388;16.210;2024-03-23T09:03:35;5.75;;;5.13;;
45684;SDS011;46836;48.388;16.210;2024-03-23T09:06:12;7.28;;;5.35;;
45684;SDS011;46836;48.388;16.210;2024-03-23T09:08:39;7.93;;;7.13;;
45684;SDS011;46836;48.388;16.210;2024-03-23T09:11:10;6.40;;;5.70;;
45684;SDS011;46836;48.388;16.210;2024-03-23T09:13:37;10.20;;;6.93;;
45684;SDS011;46836;48.388;16.210;2024-03-23T09:16:04;6.60;;;5.93;;
45684;SDS011;46836;48.388;16.210;2024-03-23T09:18:31;5.97;;;5.38;;
45684;SDS011;46836;48.388;16.210;2024-03-23T09:20:58;10.63;;;7.05;;
45684;SDS011;46836;48.388;16.210;2024-03-23T09:23:24;6.13;;;5.63;;
45684;SDS011;46836;48.388;16.210;2024-03-23T09:25:50;5.50;;;5.00;;
45684;SDS011;46836;48.388;16.210;2024-03-23T09:28:16;6.90;;;6.20;;
45684;SDS011;46836;48.388;16.210;2024-03-23T09:30:42;6.97;;;5.67;;
45684;SDS011;46836;48.388;16.210;2024-03-23T09:33:08;7.07;;;4.30;;
45684;SDS011;46836;48.388;16.210;2024-03-23T09:35:42;4.43;;;3.17;;
45684;SDS011;46836;48.388;16.210;2024-03-23T09:38:09;5.10;;;2.63;;
45684;SDS011;46836;48.388;16.210;2024-03-23T09:40:42;3.63;;;2.73;;
45684;SDS011;46836;48.388;16.210;2024-03-23T09:43:09;5.13;;;2.27;;
45684;SDS011;46836;48.388;16.210;2024-03-23T09:45:38;3.20;;;2.07;;
45684;SDS011;46836;48.388;16.210;2024-03-23T09:48:09;3.73;;;1.70;;
45684;SDS011;46836;48.388;16.210;2024-03-23T09:50:38;3.47;;;2.27;;
45684;SDS011;46836;48.388;16.210;2024-03-23T09:53:13;5.63;;;2.23;;
45684;SDS011;46836;48.388;16.210;2024-03-23T09:55:41;4.90;;;1.90;;
45684;SDS011;46836;48.388;16.210;2024-03-23T09:58:23;2.43;;;2.03;;
45684;SDS011;46836;48.388;16.210;2024-03-23T10:01:00;4.00;;;2.20;;
45684;SDS011;46836;48.388;16.210;2024-03-23T10:03:32;1.60;;;1.50;;
45684;SDS011;46836;48.388;16.210;2024-03-23T10:06:11;3.17;;;2.00;;
45684;SDS011;46836;48.388;16.210;2024-03-23T10:08:37;2.63;;;1.97;;
45684;SDS011;46836;48.388;16.210;2024-03-23T10:11:13;3.40;;;1.60;;
45684;SDS011;46836;48.388;16.210;2024-03-23T10:13:44;3.80;;;1.77;;
45684;SDS011;46836;48.388;16.210;2024-03-23T10:16:23;10.23;;;1.90;;
45684;SDS011;46836;48.388;16.210;2024-03-23T10:18:49;5.97;;;2.00;;
45684;SDS011;46836;48.388;16.210;2024-03-23T10:21:16;2.33;;;1.67;;
45684;SDS011;46836;48.388;16.210;2024-03-23T10:23:43;1.70;;;1.50;;
45684;SDS011;46836;48.388;16.210;2024-03-23T10:31:33;2.20;;;1.77;;
45684;SDS011;46836;48.388;16.210;2024-03-23T10:34:03;4.13;;;1.37;;
45684;SDS011;46836;48.388;16.210;2024-03-23T10:36:30;2.37;;;2.17;;
45684;SDS011;46836;48.388;16.210;2024-03-23T10:38:56;3.97;;;1.60;;
45684;SDS011;46836;48.388;16.210;2024-03-23T10:41:28;1.80;;;1.70;;
45684;SDS011;46836;48.388;16.210;2024-03-23T10:43:56;4.10;;;1.47;;
45684;SDS011;46836;48.388;16.210;2024-03-23T10:46:23;1.57;;;1.37;;
45684;SDS011;46836;48.388;16.210;2024-03-23T10:48:50;2.07;;;1.47;;
45684;SDS011;46836;48.388;16.210;2024-03-23T10:51:16;2.40;;;1.60;;
45684;SDS011;46836;48.388;16.210;2024-03-23T10:53:42;2.67;;;2.30;;
45684;SDS011;46836;48.388;16.210;2024-03-23T10:56:09;3.73;;;1.73;;
45684;SDS011;46836;48.388;16.210;2024-03-23T11:01:04;2.87;;;1.93;;
45684;SDS011;46836;48.388;16.210;2024-03-23T11:03:34;3.33;;;1.43;;
45684;SDS011;46836;48.388;16.210;2024-03-23T11:06:02;8.73;;;1.70;;
45684;SDS011;46836;48.388;16.210;2024-03-23T11:08:30;1.70;;;1.53;;
45684;SDS011;46836;48.388;16.210;2024-03-23T11:13:52;2.47;;;1.47;;
45684;SDS011;46836;48.388;16.210;2024-03-23T11:16:26;2.40;;;1.33;;
45684;SDS011;46836;48.388;16.210;2024-03-23T11:19:42;3.07;;;1.90;;
45684;SDS011;46836;48.388;16.210;2024-03-23T11:22:02;2.50;;;1.90;;
45684;SDS011;46836;48.388;16.210;2024-03-23T11:24:30;3.53;;;2.10;;
45684;SDS011;46836;48.388;16.210;2024-03-23T11:26:56;2.03;;;1.70;;
45684;SDS011;46836;48.388;16.210;2024-03-23T11:29:29;3.97;;;1.73;;
45684;SDS011;46836;48.388;16.210;2024-03-23T11:31:56;2.47;;;1.80;;
45684;SDS011;46836;48.388;16.210;2024-03-23T11:34:23;7.43;;;1.90;;
45684;SDS011;46836;48.388;16.210;2024-03-23T11:36:49;2.73;;;1.60;;
45684;SDS011;46836;48.388;16.210;2024-03-23T11:39:27;4.90;;;2.20;;
45684;SDS011;46836;48.388;16.210;2024-03-23T11:41:55;3.00;;;1.87;;
45684;SDS011;46836;48.388;16.210;2024-03-23T11:44:22;2.33;;;1.80;;
45684;SDS011;46836;48.388;16.210;2024-03-23T11:46:51;2.90;;;2.00;;
45684;SDS011;46836;48.388;16.210;2024-03-23T11:49:24;5.43;;;2.23;;
45684;SDS011;46836;48.388;16.210;2024-03-23T11:51:52;4.77;;;2.00;;
45684;SDS011;46836;48.388;16.210;2024-03-23T11:54:23;3.60;;;2.53;;
45684;SDS011;46836;48.388;16.210;2024-03-23T11:56:59;3.63;;;1.80;;
45684;SDS011;46836;48.388;16.210;2024-03-23T12:02:07;3.33;;;2.10;;
45684;SDS011;46836;48.388;16.210;2024-03-23T12:04:34;5.80;;;1.70;;
45684;SDS011;46836;48.388;16.210;2024-03-23T12:07:15;4.20;;;2.10;;
45684;SDS011;46836;48.388;16.210;2024-03-23T12:10:04;9.90;;;2.70;;
45684;SDS011;46836;48.388;16.210;2024-03-23T12:12:31;16.13;;;2.37;;
45684;SDS011;46836;48.388;16.210;2024-03-23T12:15:04;5.40;;;2.00;;
45684;SDS011;46836;48.388;16.210;2024-03-23T12:17:33;3.43;;;2.00;;
45684;SDS011;46836;48.388;16.210;2024-03-23T12:20:00;3.93;;;2.10;;
45684;SDS011;46836;48.388;16.210;2024-03-23T12:22:27;2.47;;;2.10;;
45684;SDS011;46836;48.388;16.210;2024-03-23T12:24:54;5.67;;;2.63;;
45684;SDS011;46836;48.388;16.210;2024-03-23T12:27:21;5.13;;;1.97;;
45684;SDS011;46836;48.388;16.210;2024-03-23T12:29:48;4.77;;;2.27;;
45684;SDS011;46836;48.388;16.210;2024-03-23T12:32:14;5.07;;;2.60;;
45684;SDS011;46836;48.388;16.210;2024-03-23T12:34:41;5.30;;;2.60;;
45684;SDS011;46836;48.388;16.210;2024-03-23T12:37:08;20.73;;;3.40;;
45684;SDS011;46836;48.388;16.210;2024-03-23T12:39:37;23.23;;;4.17;;
45684;SDS011;46836;48.388;16.210;2024-03-23T12:42:04;15.30;;;2.50;;
45684;SDS011;46836;48.388;16.210;2024-03-23T12:44:30;4.17;;;1.73;;
45684;SDS011;46836;48.388;16.210;2024-03-23T12:46:57;5.73;;;1.30;;
45684;SDS011;46836;48.388;16.210;2024-03-23T12:49:23;2.90;;;1.60;;
45684;SDS011;46836;48.388;16.210;2024-03-23T12:51:55;1.33;;;1.23;;
45684;SDS011;46836;48.388;16.210;2024-03-23T12:54:22;4.87;;;1.10;;
45684;SDS011;46836;48.388;16.210;2024-03-23T12:56:49;4.73;;;1.60;;
45684;SDS011;46836;48.388;16.210;2024-03-23T12:59:15;2.90;;;1.30;;
45684;SDS011;46836;48.388;16.210;2024-03-23T13:01:42;3.28;;;0.95;;
45684;SDS011;46836;48.388;16.210;2024-03-23T13:04:11;1.65;;;1.00;;
45684;SDS011;46836;48.388;16.210;2024-03-23T13:06:37;1.33;;;0.85;;
45684;SDS011;46836;48.388;16.210;2024-03-23T13:09:03;2.10;;;1.10;;
45684;SDS011;46836;48.388;16.210;2024-03-23T13:11:30;2.22;;;0.90;;
45684;SDS011;46836;48.388;16.210;2024-03-23T13:13:56;2.20;;;1.20;;
45684;SDS011;46836;48.388;16.210;2024-03-23T13:16:22;0.87;;;0.80;;
45684;SDS011;46836;48.388;16.210;2024-03-23T13:18:48;1.40;;;0.70;;
45684;SDS011;46836;48.388;16.210;2024-03-23T13:21:14;1.10;;;1.00;;
45684;SDS011;46836;48.388;16.210;2024-03-23T13:23:40;1.10;;;0.70;;
45684;SDS011;46836;48.388;16.210;2024-03-23T13:26:07;0.90;;;0.90;;
45684;SDS011;46836;48.388;16.210;2024-03-23T13:28:33;2.65;;;0.80;;
45684;SDS011;46836;48.388;16.210;2024-03-23T13:31:01;1.35;;;0.70;;
45684;SDS011;46836;48.388;16.210;2024-03-23T13:33:29;1.05;;;0.70;;
45684;SDS011;46836;48.388;16.210;2024-03-23T13:35:58;1.20;;;0.88;;
45684;SDS011;46836;48.388;16.210;2024-03-23T13:38:24;0.80;;;0.80;;
45684;SDS011;46836;48.388;16.210;2024-03-23T13:40:52;2.00;;;0.77;;
45684;SDS011;46836;48.388;16.210;2024-03-23T13:43:20;1.00;;;0.90;;
45684;SDS011;46836;48.388;16.210;2024-03-23T13:45:47;2.15;;;1.10;;
45684;SDS011;46836;48.388;16.210;2024-03-23T13:48:15;3.25;;;0.95;;
45684;SDS011;46836;48.388;16.210;2024-03-23T13:50:41;0.85;;;0.80;;
45684;SDS011;46836;48.388;16.210;2024-03-23T13:53:07;3.20;;;1.40;;
45684;SDS011;46836;48.388;16.210;2024-03-23T13:55:34;1.15;;;0.82;;
45684;SDS011;46836;48.388;16.210;2024-03-23T13:58:01;2.58;;;1.05;;
45684;SDS011;46836;48.388;16.210;2024-03-23T14:00:27;1.45;;;0.90;;
45684;SDS011;46836;48.388;16.210;2024-03-23T14:02:53;1.70;;;1.10;;
45684;SDS011;46836;48.388;16.210;2024-03-23T14:05:19;4.30;;;1.60;;
45684;SDS011;46836;48.388;16.210;2024-03-23T14:07:45;1.27;;;1.17;;
45684;SDS011;46836;48.388;16.210;2024-03-23T14:10:11;2.33;;;1.20;;
45684;SDS011;46836;48.388;16.210;2024-03-23T14:12:37;0.95;;;0.88;;
45684;SDS011;46836;48.388;16.210;2024-03-23T14:15:06;1.50;;;1.38;;
45684;SDS011;46836;48.388;16.210;2024-03-23T14:17:33;2.15;;;1.20;;
45684;SDS011;46836;48.388;16.210;2024-03-23T14:20:00;1.40;;;1.30;;
45684;SDS011;46836;48.388;16.210;2024-03-23T14:22:27;2.35;;;1.42;;
45684;SDS011;46836;48.388;16.210;2024-03-23T14:24:53;1.73;;;1.33;;
45684;SDS011;46836;48.388;16.210;2024-03-23T14:27:19;2.70;;;1.60;;
45684;SDS011;46836;48.388;16.210;2024-03-23T14:29:47;2.10;;;1.33;;
45684;SDS011;46836;48.388;16.210;2024-03-23T14:32:13;3.97;;;1.65;;
45684;SDS011;46836;48.388;16.210;2024-03-23T14:34:40;2.97;;;1.73;;
45684;SDS011;46836;48.388;16.210;2024-03-23T14:37:06;1.70;;;1.58;;
45684;SDS011;46836;48.388;16.210;2024-03-23T14:39:33;5.05;;;1.95;;
45684;SDS011;46836;48.388;16.210;2024-03-23T14:42:02;2.58;;;1.60;;
45684;SDS011;46836;48.388;16.210;2024-03-23T14:44:34;2.33;;;1.95;;
45684;SDS011;46836;48.388;16.210;2024-03-23T14:47:00;2.55;;;1.42;;
45684;SDS011;46836;48.388;16.210;2024-03-23T14:49:26;2.00;;;1.83;;
45684;SDS011;46836;48.388;16.210;2024-03-23T14:51:52;2.13;;;1.93;;
45684;SDS011;46836;48.388;16.210;2024-03-23T14:54:18;3.10;;;2.20;;
45684;SDS011;46836;48.388;16.210;2024-03-23T14:56:44;2.33;;;2.13;;
45684;SDS011;46836;48.388;16.210;2024-03-23T14:59:09;2.63;;;1.80;;
45684;SDS011;46836;48.388;16.210;2024-03-23T15:01:35;7.43;;;2.20;;
45684;SDS011;46836;48.388;16.210;2024-03-23T15:04:01;2.17;;;1.40;;
45684;SDS011;46836;48.388;16.210;2024-03-23T15:06:29;5.65;;;1.65;;
45684;SDS011;46836;48.388;16.210;2024-03-23T15:08:55;0.90;;;0.90;;
45684;SDS011;46836;48.388;16.210;2024-03-23T15:11:21;2.05;;;1.35;;
45684;SDS011;46836;48.388;16.210;2024-03-23T15:13:49;1.60;;;1.00;;
45684;SDS011;46836;48.388;16.210;2024-03-23T15:16:18;2.08;;;0.98;;
45684;SDS011;46836;48.388;16.210;2024-03-23T15:18:45;3.75;;;1.10;;
45684;SDS011;46836;48.388;16.210;2024-03-23T15:21:11;1.05;;;0.95;;
45684;SDS011;46836;48.388;16.210;2024-03-23T15:23:39;1.13;;;0.90;;
45684;SDS011;46836;48.388;16.210;2024-03-23T15:26:08;1.77;;;0.90;;
45684;SDS011;46836;48.388;16.210;2024-03-23T15:28:35;1.27;;;1.17;;
45684;SDS011;46836;48.388;16.210;2024-03-23T15:31:20;2.13;;;1.30;;